Time;durP1;ratioP1;P1;durP2;ratioP2;P2;SDS_P1;SDS_P2;PMS_P1;PMS_P2;Temp;Humidity;BMP_temperature;BMP_pressure;BME280_temperature;BME280_humidity;BME280_pressure;Samples;Min_cycle;Max_cycle;Signal;HPM_P1;HPM_P2
2022/03/12 00:01:26;;;;;;;35.43;14.50;;;;;;;-1.26;48.09;102111.91;3635478;79;98945;-80
2022/03/12 00:06:27;;;;;;;29.92;12.47;;;;;;;-1.31;47.67;102106.47;3650256;78;99164;-79
2022/03/12 00:11:34;;;;;;;24.70;10.90;;;;;;;-1.36;48.10;102103.20;3635373;78;99484;-79
2022/03/12 00:16:34;;;;;;;29.87;12.57;;;;;;;-1.42;48.19;102102.85;3633756;79;99126;-79
2022/03/12 00:21:35;;;;;;;32.00;13.20;;;;;;;-1.46;47.95;102099.58;3585190;80;99312;-79
2022/03/12 00:26:40;;;;;;;35.37;12.83;;;;;;;-1.49;48.35;102094.16;3592773;80;99447;-79
2022/03/12 00:31:39;;;;;;;33.38;14.18;;;;;;;-1.53;48.50;102098.44;3554504;79;99461;-79
2022/03/12 00:36:42;;;;;;;34.58;13.28;;;;;;;-1.55;48.58;102093.84;3604052;79;99200;-78
2022/03/12 00:41:43;;;;;;;35.35;14.98;;;;;;;-1.58;48.80;102098.94;3587938;77;99646;-79
2022/03/12 00:46:46;;;;;;;34.60;14.20;;;;;;;-1.59;48.71;102100.02;3591986;79;99205;-79
2022/03/12 00:51:48;;;;;;;35.35;14.85;;;;;;;-1.65;48.75;102107.23;3609454;78;99736;-80
2022/03/12 00:56:49;;;;;;;33.27;13.70;;;;;;;-1.69;48.79;102108.02;3620296;80;29215;-80
2022/03/12 01:01:50;;;;;;;29.57;12.80;;;;;;;-1.72;49.17;102104.46;3608153;79;99079;-80
2022/03/12 01:06:51;;;;;;;34.87;13.83;;;;;;;-1.77;49.18;102101.19;3608162;80;99823;-79
2022/03/12 01:11:52;;;;;;;34.33;13.57;;;;;;;-1.83;49.36;102099.51;3599019;78;99229;-79
2022/03/12 01:17:00;;;;;;;37.07;17.20;;;;;;;-1.87;49.80;102094.89;3601546;80;99785;-79
2022/03/12 01:22:03;;;;;;;36.35;15.78;;;;;;;-1.90;49.60;102107.52;3662923;77;99656;-79
2022/03/12 01:27:04;;;;;;;36.40;14.10;;;;;;;-1.94;49.68;102101.83;3666986;79;27512;-79
2022/03/12 01:32:06;;;;;;;42.60;16.67;;;;;;;-1.98;50.10;102105.29;3666336;77;99565;-80
2022/03/12 01:37:08;;;;;;;33.67;13.83;;;;;;;-2.03;49.93;102101.98;3636099;80;99101;-81
2022/03/12 01:42:09;;;;;;;39.87;15.80;;;;;;;-2.07;49.87;102098.16;3651470;79;99615;-80
2022/03/12 01:47:11;;;;;;;37.90;15.87;;;;;;;-2.10;50.24;102105.94;3605050;79;99492;-79
2022/03/12 01:52:12;;;;;;;40.48;15.43;;;;;;;-2.14;50.35;102090.80;3654904;78;99618;-80
2022/03/12 01:57:13;;;;;;;34.70;14.20;;;;;;;-2.16;50.45;102087.55;3601486;80;26170;-80
2022/03/12 02:02:15;;;;;;;38.50;16.17;;;;;;;-2.18;50.49;102082.92;3637360;78;99163;-79
2022/03/12 02:07:16;;;;;;;35.60;13.10;;;;;;;-2.20;50.42;102074.28;3660628;79;99353;-81
2022/03/12 02:12:17;;;;;;;35.67;12.77;;;;;;;-2.22;50.69;102078.30;3636208;78;99611;-81
2022/03/12 02:17:18;;;;;;;41.07;14.30;;;;;;;-2.22;50.56;102074.25;3610956;80;99948;-80
2022/03/12 02:22:19;;;;;;;40.20;15.43;;;;;;;-2.23;50.87;102076.67;3587026;79;99707;-79
2022/03/12 02:27:26;;;;;;;33.63;13.23;;;;;;;-2.25;50.84;102064.78;3590639;80;25833;-79
2022/03/12 02:32:23;;;;;;;34.78;13.53;;;;;;;-2.27;51.01;102059.36;3611588;79;99492;-78
2022/03/12 02:37:32;;;;;;;29.70;12.13;;;;;;;-2.28;51.11;102059.09;3590305;77;99487;-79
2022/03/12 02:42:37;;;;;;;32.38;13.55;;;;;;;-2.30;51.14;102059.33;3546959;78;99517;-79
2022/03/12 02:47:43;;;;;;;33.53;13.15;;;;;;;-2.32;51.24;102055.26;3614557;79;99645;-79
2022/03/12 02:52:45;;;;;;;30.53;13.87;;;;;;;-2.34;51.11;102049.31;3602032;78;99228;-80
2022/03/12 02:57:46;;;;;;;34.53;12.60;;;;;;;-2.39;51.13;102052.78;3629051;76;99571;-78
2022/03/12 03:02:56;;;;;;;33.80;13.40;;;;;;;-2.40;51.21;102044.38;3617560;80;99131;-79
2022/03/12 03:07:58;;;;;;;37.67;14.10;;;;;;;-2.40;51.57;102054.38;3585253;81;99061;-79
2022/03/12 03:13:18;;;;;;;39.53;13.55;;;;;;;-2.42;51.67;102057.83;3617113;80;99158;-79
2022/03/12 03:18:24;;;;;;;37.70;14.47;;;;;;;-2.46;51.71;102051.34;3565274;81;99185;-80
2022/03/12 03:23:29;;;;;;;27.90;12.47;;;;;;;-2.50;51.89;102055.59;3587590;80;99620;-79
2022/03/12 03:28:30;;;;;;;30.80;12.63;;;;;;;-2.52;51.81;102050.44;3560539;81;99119;-79
2022/03/12 03:33:32;;;;;;;28.80;11.47;;;;;;;-2.54;52.06;102051.24;3567385;80;99025;-79
2022/03/12 03:38:33;;;;;;;35.37;14.10;;;;;;;-2.55;51.73;102043.40;3607900;79;98819;-80
2022/03/12 03:43:34;;;;;;;39.37;13.10;;;;;;;-2.58;51.77;102039.33;3583323;81;98941;-80
2022/03/12 03:48:38;;;;;;;36.50;15.03;;;;;;;-2.61;52.07;102031.76;3577116;81;99203;-79
2022/03/12 03:53:39;;;;;;;33.37;13.97;;;;;;;-2.61;51.90;102037.67;3555023;81;99641;-79
2022/03/12 03:58:39;;;;;;;41.40;14.90;;;;;;;-2.65;52.34;102035.19;3572735;81;99660;-79
2022/03/12 04:03:48;;;;;;;28.17;12.30;;;;;;;-2.68;52.15;102023.03;3615597;79;99563;-79
2022/03/12 04:08:47;;;;;;;29.63;11.23;;;;;;;-2.70;52.18;102019.78;3654086;78;27012;-80
2022/03/12 04:13:52;;;;;;;32.42;13.00;;;;;;;-2.72;52.82;102017.88;3649522;79;99435;-78
2022/03/12 04:18:55;;;;;;;30.47;11.83;;;;;;;-2.74;52.43;102012.45;3627440;78;99599;-78
2022/03/12 04:23:56;;;;;;;32.10;13.07;;;;;;;-2.76;52.40;102003.79;3568120;81;99601;-79
2022/03/12 04:28:58;;;;;;;33.80;14.50;;;;;;;-2.78;52.38;102008.63;3571680;80;99222;-79
2022/03/12 04:33:59;;;;;;;28.17;11.87;;;;;;;-2.79;52.38;102009.14;3569897;80;98908;-78
2022/03/12 04:39:00;;;;;;;34.23;13.13;;;;;;;-2.80;52.44;101998.09;3566331;81;25799;-78
2022/03/12 04:44:04;;;;;;;36.93;15.40;;;;;;;-2.80;52.19;102002.14;3556216;80;99125;-79
2022/03/12 04:49:05;;;;;;;34.20;12.78;;;;;;;-2.78;52.26;102005.94;3602894;80;99365;-78
2022/03/12 04:54:06;;;;;;;36.17;12.82;;;;;;;-2.82;52.40;101999.41;3579518;80;99122;-80
2022/03/12 04:59:07;;;;;;;31.87;13.07;;;;;;;-2.82;52.38;102006.14;3575909;80;99568;-79
2022/03/12 05:04:08;;;;;;;32.77;14.37;;;;;;;-2.82;52.32;101988.63;3561916;81;99580;-80
2022/03/12 05:09:09;;;;;;;34.63;13.10;;;;;;;-2.85;52.57;101998.58;3566349;81;26524;-78
2022/03/12 05:14:15;;;;;;;32.50;11.40;;;;;;;-2.88;52.67;102001.76;3552840;81;99324;-78
2022/03/12 05:19:15;;;;;;;30.77;12.03;;;;;;;-2.90;52.73;101996.61;3614310;79;99065;-77
2022/03/12 05:24:16;;;;;;;29.15;12.28;;;;;;;-2.91;53.13;102006.28;3635410;79;99385;-78
2022/03/12 05:29:18;;;;;;;28.83;12.93;;;;;;;-2.93;52.96;101997.65;3612657;79;99201;-78
2022/03/12 05:34:25;;;;;;;26.63;11.13;;;;;;;-2.93;53.56;101997.65;3649928;79;99578;-78
2022/03/12 05:39:26;;;;;;;26.00;11.07;;;;;;;-2.93;53.49;101994.95;3642479;80;28923;-78
2022/03/12 05:44:28;;;;;;;27.57;11.73;;;;;;;-2.94;53.38;101991.47;3646941;78;99380;-80
2022/03/12 05:49:29;;;;;;;25.57;10.83;;;;;;;-2.93;53.60;101985.02;3654905;76;99007;-79
2022/03/12 05:54:30;;;;;;;26.10;13.00;;;;;;;-2.89;53.19;101990.70;3643956;79;99516;-78
2022/03/12 05:59:32;;;;;;;32.80;13.47;;;;;;;-2.86;53.61;101996.92;3665621;79;99170;-78
2022/03/12 06:04:34;;;;;;;28.30;11.60;;;;;;;-2.82;53.40;101995.37;3631148;79;99093;-78
2022/03/12 06:09:35;;;;;;;33.17;12.37;;;;;;;-2.76;53.37;101998.41;3618555;80;29207;-79
2022/03/12 06:14:37;;;;;;;31.13;11.47;;;;;;;-2.71;53.44;101992.55;3625918;80;99247;-78
2022/03/12 06:19:38;;;;;;;28.67;10.90;;;;;;;-2.63;53.47;101989.95;3654934;78;99012;-78
2022/03/12 06:24:40;;;;;;;24.87;10.27;;;;;;;-2.57;53.32;101995.13;3585742;80;98740;-78
2022/03/12 06:29:41;;;;;;;31.37;10.90;;;;;;;-2.48;53.21;101996.32;3645212;80;99234;-78
2022/03/12 06:34:42;;;;;;;28.93;10.97;;;;;;;-2.40;53.30;101990.47;3625212;79;99153;-76
2022/03/12 06:39:44;;;;;;;25.67;10.37;;;;;;;-2.28;52.78;101985.77;3647168;80;99125;-76
2022/03/12 06:44:45;;;;;;;30.30;12.47;;;;;;;-2.16;52.48;101986.42;3641711;79;98419;-77
2022/03/12 06:49:46;;;;;;;25.13;11.23;;;;;;;-2.03;52.60;101979.25;3626067;76;99022;-77
2022/03/12 06:54:47;;;;;;;30.00;11.17;;;;;;;-1.90;52.03;101979.36;3565693;80;99358;-76
2022/03/12 06:59:48;;;;;;;33.07;11.13;;;;;;;-1.78;51.94;101972.73;3629419;79;99123;-76
2022/03/12 07:04:49;;;;;;;26.83;12.60;;;;;;;-1.69;51.94;101985.20;3636296;80;99598;-78
2022/03/12 07:09:50;;;;;;;27.03;9.93;;;;;;;-1.51;51.16;101980.74;3624346;79;99301;-77
2022/03/12 07:14:51;;;;;;;28.43;10.23;;;;;;;-1.41;51.47;101978.94;3633259;79;26286;-76
2022/03/12 07:19:52;;;;;;;25.00;11.53;;;;;;;-1.24;50.87;101977.41;3652107;78;99569;-77
2022/03/12 07:24:53;;;;;;;26.82;10.45;;;;;;;-1.08;50.55;101983.17;3674491;79;99138;-78
2022/03/12 07:29:55;;;;;;;24.43;11.37;;;;;;;-0.95;50.32;101988.92;3678983;78;99241;-78
2022/03/12 07:34:56;;;;;;;28.13;12.70;;;;;;;-0.85;50.11;101982.73;3662120;78;99158;-78
2022/03/12 07:39:58;;;;;;;26.00;12.53;;;;;;;-0.76;50.13;101987.41;3650981;79;99398;-78
2022/03/12 07:44:59;;;;;;;27.20;11.67;;;;;;;-0.60;49.46;101982.85;3639273;79;26436;-78
2022/03/12 07:50:00;;;;;;;30.57;12.50;;;;;;;-0.44;48.89;101985.87;3628527;79;103338;-77
2022/03/12 07:55:02;;;;;;;24.87;9.93;;;;;;;-0.31;48.80;101977.52;3640671;79;99111;-77
2022/03/12 08:00:07;;;;;;;27.17;10.80;;;;;;;-0.13;48.26;101974.84;3630473;78;98726;-77
2022/03/12 08:05:08;;;;;;;24.05;10.38;;;;;;;0.04;48.03;101972.16;3641963;79;99105;-78
2022/03/12 08:10:10;;;;;;;27.43;11.00;;;;;;;0.20;47.76;101977.03;3625065;77;99126;-78
2022/03/12 08:15:12;;;;;;;24.53;11.17;;;;;;;0.39;47.74;101971.36;3640302;78;26319;-78
2022/03/12 08:20:15;;;;;;;27.42;9.98;;;;;;;0.62;47.26;101973.48;3628904;79;98939;-77
2022/03/12 08:25:17;;;;;;;26.33;11.73;;;;;;;0.85;46.45;101976.95;3635525;80;98530;-77
2022/03/12 08:30:19;;;;;;;24.90;10.27;;;;;;;1.05;46.28;101966.86;3630372;80;99295;-78
2022/03/12 08:35:20;;;;;;;24.52;10.90;;;;;;;1.30;45.59;101968.13;3636134;77;99203;-79
2022/03/12 08:40:23;;;;;;;29.18;12.78;;;;;;;1.59;45.99;101968.26;3687747;78;98828;-78
2022/03/12 08:45:24;;;;;;;24.23;10.75;;;;;;;1.90;45.80;101963.70;3672672;78;31978;-79
2022/03/12 08:50:26;;;;;;;23.57;10.10;;;;;;;2.23;45.22;101964.80;3659658;78;99103;-81
2022/03/12 08:55:27;;;;;;;22.70;9.40;;;;;;;2.60;44.64;101969.09;3668590;78;99035;-79
2022/03/12 09:00:28;;;;;;;23.73;10.60;;;;;;;3.05;44.93;101959.91;3648379;79;99134;-81
2022/03/12 09:05:29;;;;;;;35.50;12.40;;;;;;;3.49;45.25;101955.55;3665323;78;99303;-81
2022/03/12 09:10:30;;;;;;;26.67;12.43;;;;;;;4.16;44.62;101951.00;3647461;78;99262;-81
2022/03/12 09:15:32;;;;;;;26.33;11.47;;;;;;;4.84;43.92;101947.86;3681302;78;26834;-81
2022/03/12 09:20:38;;;;;;;29.63;11.30;;;;;;;5.62;43.25;101941.60;3662825;78;98952;-81
2022/03/12 09:25:36;;;;;;;28.60;11.60;;;;;;;6.42;42.16;101938.30;3612746;79;98651;-80
2022/03/12 09:30:38;;;;;;;22.80;11.67;;;;;;;7.31;41.61;101941.05;3571043;80;98960;-81
2022/03/12 09:35:39;;;;;;;25.52;11.33;;;;;;;7.95;41.37;101935.47;3604937;80;98870;-81
2022/03/12 09:40:40;;;;;;;22.77;12.50;;;;;;;8.72;39.78;101931.27;3579725;78;98820;-81
2022/03/12 09:45:41;;;;;;;28.20;12.27;;;;;;;9.22;37.75;101934.34;3601495;78;98900;-82
2022/03/12 09:50:42;;;;;;;23.87;11.73;;;;;;;9.37;37.98;101941.23;3599407;80;98711;-81
2022/03/12 09:55:43;;;;;;;24.93;13.33;;;;;;;10.07;37.17;101933.77;3599601;78;98855;-81
2022/03/12 10:00:44;;;;;;;34.77;16.27;;;;;;;10.30;37.04;101930.09;3591760;80;99481;-80
2022/03/12 10:05:45;;;;;;;40.97;19.00;;;;;;;11.18;36.78;101927.81;3601364;80;99250;-80
2022/03/12 10:10:47;;;;;;;22.70;11.73;;;;;;;11.56;35.10;101919.98;3588984;80;115762;-82
2022/03/12 10:15:49;;;;;;;70.70;31.90;;;;;;;11.86;34.63;101914.99;3585482;78;99323;-80
2022/03/12 10:20:50;;;;;;;99.60;44.93;;;;;;;11.87;33.30;101916.59;3653999;79;99177;-79
2022/03/12 10:25:51;;;;;;;57.70;26.93;;;;;;;12.45;34.61;101919.48;3670132;77;99326;-81
2022/03/12 10:30:53;;;;;;;38.30;19.73;;;;;;;13.00;33.92;101920.75;3629655;79;99186;-80
2022/03/12 10:35:54;;;;;;;26.63;13.53;;;;;;;13.38;33.13;101915.36;3630352;78;99260;-80
2022/03/12 10:40:58;;;;;;;40.73;19.43;;;;;;;13.03;31.13;101909.56;3655609;79;99138;-80
2022/03/12 10:46:01;;;;;;;43.38;20.35;;;;;;;13.13;31.76;101916.72;3659605;78;99653;-81
2022/03/12 10:51:03;;;;;;;37.65;16.75;;;;;;;13.17;30.99;101909.89;3637536;79;98811;-80
2022/03/12 10:56:07;;;;;;;51.68;23.10;;;;;;;13.34;31.02;101905.36;3643738;79;99466;-81
2022/03/12 11:01:08;;;;;;;38.80;19.00;;;;;;;13.63;31.23;101901.49;3635139;79;99043;-81
2022/03/12 11:06:09;;;;;;;31.03;15.77;;;;;;;13.60;30.90;101891.16;3678342;77;99188;-80
2022/03/12 11:11:14;;;;;;;27.65;13.65;;;;;;;13.62;31.02;101886.66;3644503;78;99634;-81
2022/03/12 11:16:21;;;;;;;22.07;12.13;;;;;;;13.62;30.41;101882.52;3628601;78;99495;-81
2022/03/12 11:21:43;;;;;;;27.90;13.58;;;;;;;12.93;30.21;101877.69;3651624;79;98865;-81
2022/03/12 11:26:48;;;;;;;27.02;15.23;;;;;;;13.11;30.36;101874.00;3653726;79;98781;-82
2022/03/12 11:31:53;;;;;;;52.00;27.43;;;;;;;13.28;30.60;101870.28;3656449;78;99175;-81
2022/03/12 11:37:12;;;;;;;46.60;29.25;;;;;;;13.16;29.04;101858.53;3664365;78;99216;-81
2022/03/12 11:42:16;;;;;;;24.25;12.53;;;;;;;12.75;29.79;101871.53;3662878;78;99642;-82
2022/03/12 11:47:26;;;;;;;24.00;12.90;;;;;;;12.59;27.93;101858.29;3675973;78;99221;-81
2022/03/12 11:52:27;;;;;;;29.50;14.35;;;;;;;12.20;28.63;101860.01;3663102;79;99737;-82
2022/03/12 11:57:32;;;;;;;27.02;13.65;;;;;;;12.01;29.51;101841.14;3654117;79;32385;-81
2022/03/12 12:02:35;;;;;;;23.73;12.00;;;;;;;12.13;27.96;101850.73;3677746;79;99088;-81
2022/03/12 12:07:36;;;;;;;25.25;12.75;;;;;;;11.48;27.23;101844.28;3689264;78;99026;-80
2022/03/12 12:12:38;;;;;;;27.10;13.45;;;;;;;11.31;29.02;101821.13;3688123;78;99169;-82
2022/03/12 12:17:38;;;;;;;24.70;12.20;;;;;;;11.56;30.01;101835.88;3692916;78;99120;-81
2022/03/12 12:22:40;;;;;;;24.43;11.40;;;;;;;11.73;29.79;101832.85;3690045;78;99545;-82
2022/03/12 12:27:51;;;;;;;18.23;10.10;;;;;;;11.58;28.31;101821.74;3655670;79;26700;-81
2022/03/12 12:32:52;;;;;;;22.55;10.90;;;;;;;11.36;28.52;101816.75;3654094;78;99367;-81
2022/03/12 12:37:59;;;;;;;25.13;11.43;;;;;;;11.28;28.92;101798.41;3640992;79;99137;-82
2022/03/12 12:43:09;;;;;;;23.67;11.57;;;;;;;10.90;27.84;101785.03;3649847;78;99087;-81
2022/03/12 12:48:14;;;;;;;18.52;9.40;;;;;;;10.90;27.84;101785.03;3657289;79;99497;-80
2022/03/12 12:53:20;;;;;;;26.65;12.70;;;;;;;10.80;28.92;101793.76;3686509;78;98948;-81
2022/03/12 12:58:24;;;;;;;;;;;;;;;10.90;29.19;101771.86;3677284;78;99156;-81
2022/03/12 13:03:25;;;;;;;23.27;12.23;;;;;;;10.87;27.82;101777.48;3664119;79;84458;-81
2022/03/12 13:08:46;;;;;;;24.27;11.00;;;;;;;10.96;29.82;101769.88;3657736;79;99306;-80
2022/03/12 13:13:55;;;;;;;21.60;10.43;;;;;;;11.01;29.92;101773.77;3637966;79;99261;-82
2022/03/12 13:18:57;;;;;;;23.85;11.45;;;;;;;10.98;29.40;101766.77;3646513;79;99560;-80
2022/03/12 13:23:58;;;;;;;18.00;8.95;;;;;;;10.86;29.06;101762.67;3583250;79;99068;-81
2022/03/12 13:29:07;;;;;;;19.30;9.73;;;;;;;10.91;30.04;101748.66;3591925;79;99009;-80
2022/03/12 13:34:12;;;;;;;21.50;10.23;;;;;;;10.68;28.32;101751.68;3550467;79;98987;-83
2022/03/12 13:39:19;;;;;;;17.93;8.93;;;;;;;10.50;29.40;101740.09;3573900;81;30679;-81
2022/03/12 13:44:20;;;;;;;23.70;9.43;;;;;;;10.59;28.85;101748.23;3576109;80;98742;-82
2022/03/12 13:49:22;;;;;;;21.75;9.50;;;;;;;10.44;29.85;101736.53;3554027;80;98791;-81
2022/03/12 13:54:25;;;;;;;18.57;9.98;;;;;;;10.44;29.85;101736.53;3589000;80;100706;-82
2022/03/12 13:59:30;;;;;;;18.90;9.08;;;;;;;10.40;28.41;101740.55;3559577;81;99271;-81
2022/03/12 14:04:32;;;;;;;21.93;9.97;;;;;;;10.37;29.92;101720.59;3592641;80;98968;-81
2022/03/12 14:09:34;;;;;;;19.53;9.73;;;;;;;10.43;28.96;101730.81;3539555;81;26732;-82
2022/03/12 14:14:35;;;;;;;25.10;8.70;;;;;;;10.40;28.53;101734.23;3581408;80;98780;-81
2022/03/12 14:19:37;;;;;;;21.50;11.63;;;;;;;10.24;27.56;101733.34;3566132;80;98845;-79
2022/03/12 14:24:41;;;;;;;21.05;9.70;;;;;;;10.17;29.11;101727.58;3594100;80;99453;-80
2022/03/12 14:29:43;;;;;;;18.87;8.85;;;;;;;10.16;29.52;101730.11;3593880;80;99079;-80
2022/03/12 14:34:46;;;;;;;23.15;9.85;;;;;;;10.06;28.90;101725.05;3583160;80;99060;-79
2022/03/12 14:39:52;;;;;;;18.00;9.18;;;;;;;9.94;29.31;101717.56;3590805;82;32383;-82
2022/03/12 14:44:52;;;;;;;21.40;10.40;;;;;;;9.82;29.05;101720.86;3583876;80;98428;-79
2022/03/12 14:49:55;;;;;;;20.02;9.55;;;;;;;9.70;30.16;101727.12;3568594;80;99010;-78
2022/03/12 14:55:01;;;;;;;20.05;9.98;;;;;;;9.68;30.34;101716.23;3584693;80;98470;-81
2022/03/12 15:00:09;;;;;;;21.35;10.75;;;;;;;9.63;30.41;101713.14;3584304;80;98708;-80
2022/03/12 15:05:11;;;;;;;19.73;10.20;;;;;;;9.49;29.96;101710.46;3588932;81;98060;-80
2022/03/12 15:10:18;;;;;;;22.55;11.38;;;;;;;9.32;30.00;101705.92;3588251;80;99114;-79
2022/03/12 15:15:21;;;;;;;;;;;;;;;9.24;30.82;101704.63;3613678;80;27461;-79
2022/03/12 15:20:30;;;;;;;17.92;9.18;;;;;;;9.13;30.91;101702.88;3607316;80;84132;-81
2022/03/12 15:25:35;;;;;;;18.35;9.38;;;;;;;9.00;30.17;101705.90;3632276;79;98519;-81
2022/03/12 15:30:38;;;;;;;23.77;11.97;;;;;;;8.87;31.01;101697.34;3675304;79;98623;-80
2022/03/12 15:35:46;;;;;;;19.23;9.10;;;;;;;8.76;30.58;101696.95;3630440;77;98795;-80
2022/03/12 15:40:47;;;;;;;20.12;9.10;;;;;;;8.67;30.11;101696.78;3668213;78;98620;-80
2022/03/12 15:45:49;;;;;;;19.60;9.20;;;;;;;8.54;30.91;101692.33;3631292;79;25683;-81
2022/03/12 15:50:51;;;;;;;18.05;9.10;;;;;;;8.47;31.09;101692.06;3663542;78;98529;-81
2022/03/12 15:55:52;;;;;;;20.33;10.20;;;;;;;8.36;30.63;101689.47;3674648;78;98482;-81
2022/03/12 16:00:53;;;;;;;24.03;11.07;;;;;;;8.26;31.30;101692.02;3666652;79;98860;-81
2022/03/12 16:05:56;;;;;;;23.87;10.18;;;;;;;8.14;30.15;101696.56;3628148;79;99565;-80
2022/03/12 16:10:59;;;;;;;19.92;9.48;;;;;;;8.03;31.24;101698.89;3639905;79;98730;-80
2022/03/12 16:16:02;;;;;;;29.07;11.63;;;;;;;7.93;30.89;101697.05;3667931;76;98686;-79
2022/03/12 16:21:03;;;;;;;19.40;10.05;;;;;;;7.79;31.25;101697.27;3648135;79;98518;-79
2022/03/12 16:26:04;;;;;;;19.70;9.83;;;;;;;7.69;32.22;101689.98;3630541;78;98668;-81
2022/03/12 16:31:07;;;;;;;21.97;10.83;;;;;;;7.55;32.39;101689.36;3645356;78;98683;-80
2022/03/12 16:36:08;;;;;;;22.77;10.43;;;;;;;7.44;32.06;101690.84;3664055;78;99282;-80
2022/03/12 16:41:10;;;;;;;20.12;10.20;;;;;;;7.30;31.90;101686.91;3663424;76;99117;-80
2022/03/12 16:46:15;;;;;;;23.60;10.87;;;;;;;7.15;31.96;101681.14;3650690;78;99322;-79
2022/03/12 16:51:14;;;;;;;21.45;10.23;;;;;;;7.00;31.86;101675.60;3661399;79;98675;-81
2022/03/12 16:56:15;;;;;;;24.97;12.57;;;;;;;6.90;32.61;101684.68;3690207;78;98576;-81
2022/03/12 17:01:15;;;;;;;24.03;10.80;;;;;;;6.77;31.88;101681.55;3650537;79;98945;-81
2022/03/12 17:06:16;;;;;;;25.33;11.90;;;;;;;6.62;32.09;101686.94;3664668;78;98857;-81
2022/03/12 17:11:19;;;;;;;24.73;12.87;;;;;;;6.45;32.92;101687.45;3655223;78;99266;-80
2022/03/12 17:16:22;;;;;;;27.13;11.90;;;;;;;6.31;32.78;101688.95;3653342;79;98716;-80
2022/03/12 17:21:23;;;;;;;29.77;12.50;;;;;;;6.14;33.50;101683.44;3632214;78;98456;-79
2022/03/12 17:26:26;;;;;;;27.47;11.53;;;;;;;5.98;32.84;101682.26;3649745;79;98595;-79
2022/03/12 17:31:27;;;;;;;28.95;12.70;;;;;;;5.85;33.34;101691.34;3654867;78;98643;-79
2022/03/12 17:36:29;;;;;;;29.87;13.57;;;;;;;5.72;33.43;101687.34;3657656;79;99253;-79
2022/03/12 17:41:30;;;;;;;34.70;16.33;;;;;;;5.57;33.72;101681.70;3665130;78;98568;-79
2022/03/12 17:46:31;;;;;;;38.87;17.93;;;;;;;5.43;34.67;101693.83;3648643;79;98823;-79
2022/03/12 17:51:35;;;;;;;42.47;18.83;;;;;;;5.28;34.99;101696.93;3653862;78;98863;-79
2022/03/12 17:56:35;;;;;;;45.55;21.87;;;;;;;5.14;35.76;101689.38;3656419;78;98701;-79
2022/03/12 18:01:36;;;;;;;42.53;18.47;;;;;;;5.02;36.07;101685.05;3651628;79;98785;-79
2022/03/12 18:06:40;;;;;;;38.63;17.13;;;;;;;4.88;36.39;101689.19;3581243;81;98831;-78
2022/03/12 18:11:40;;;;;;;46.53;19.70;;;;;;;4.74;36.84;101687.05;3647806;79;99458;-79
2022/03/12 18:16:42;;;;;;;41.83;18.93;;;;;;;4.63;37.26;101678.06;3660084;78;98834;-81
2022/03/12 18:21:43;;;;;;;45.33;20.10;;;;;;;4.52;37.74;101687.55;3653086;79;98489;-82
2022/03/12 18:26:44;;;;;;;44.60;20.10;;;;;;;4.43;38.92;101687.46;3680469;79;98672;-81
2022/03/12 18:31:48;;;;;;;46.80;21.17;;;;;;;4.34;40.32;101682.50;3690441;78;99037;-82
2022/03/12 18:36:49;;;;;;;47.75;21.20;;;;;;;4.19;39.74;101681.45;3684215;79;98757;-82
2022/03/12 18:41:51;;;;;;;48.43;20.63;;;;;;;4.05;39.94;101679.27;3693816;78;98952;-81
2022/03/12 18:46:52;;;;;;;47.53;22.20;;;;;;;3.91;40.44;101678.48;3681363;78;98950;-80
2022/03/12 18:51:53;;;;;;;45.63;21.67;;;;;;;3.81;40.92;101683.30;3674897;79;98666;-81
2022/03/12 18:56:56;;;;;;;45.83;23.00;;;;;;;3.65;40.87;101684.16;3663604;79;98602;-81
2022/03/12 19:01:57;;;;;;;55.83;24.43;;;;;;;3.56;41.87;101683.22;3627713;79;98783;-81
2022/03/12 19:06:58;;;;;;;51.70;24.60;;;;;;;3.42;41.74;101678.32;3669921;79;98560;-81
2022/03/12 19:11:59;;;;;;;51.57;23.80;;;;;;;3.30;41.26;101683.44;3678265;79;98826;-82
2022/03/12 19:17:00;;;;;;;59.10;25.40;;;;;;;3.20;41.94;101678.70;3658540;80;98831;-81
2022/03/12 19:22:04;;;;;;;62.00;26.97;;;;;;;3.08;41.52;101683.27;3653258;78;98801;-81
2022/03/12 19:27:07;;;;;;;69.82;28.45;;;;;;;2.95;41.39;101677.77;3589085;79;30625;-81
2022/03/12 19:32:13;;;;;;;61.97;25.47;;;;;;;2.91;41.46;101672.66;3581158;81;98752;-81
2022/03/12 19:37:15;;;;;;;58.80;24.07;;;;;;;2.87;41.12;101673.81;3591767;81;98847;-81
2022/03/12 19:42:19;;;;;;;56.28;23.15;;;;;;;2.85;40.90;101669.20;3594547;80;99302;-82
2022/03/12 19:47:19;;;;;;;48.83;21.23;;;;;;;2.81;40.93;101671.45;3590749;80;98780;-82
2022/03/12 19:52:21;;;;;;;54.77;23.53;;;;;;;2.78;40.93;101676.14;3581010;80;98771;-82
2022/03/12 19:57:22;;;;;;;65.92;26.27;;;;;;;2.75;40.78;101674.81;3574048;81;31178;-82
2022/03/12 20:02:24;;;;;;;57.80;24.07;;;;;;;2.70;40.83;101678.97;3579692;81;98864;-82
2022/03/12 20:07:27;;;;;;;56.07;24.30;;;;;;;2.64;41.04;101671.17;3592151;81;98751;-81
2022/03/12 20:12:28;;;;;;;60.50;21.33;;;;;;;2.60;41.17;101675.57;3592908;80;98815;-81
2022/03/12 20:17:30;;;;;;;51.97;21.47;;;;;;;2.54;41.25;101671.31;3589594;81;98838;-80
2022/03/12 20:22:33;;;;;;;58.53;24.10;;;;;;;2.46;41.47;101670.05;3573764;79;98896;-81
2022/03/12 20:27:34;;;;;;;84.45;30.08;;;;;;;2.42;41.41;101668.23;3607611;79;99582;-82
2022/03/12 20:32:36;;;;;;;114.22;49.95;;;;;;;2.37;41.34;101665.58;3670449;78;30963;-82
2022/03/12 20:37:38;;;;;;;91.20;39.38;;;;;;;2.33;41.43;101667.25;3652769;78;99004;-81
2022/03/12 20:42:40;;;;;;;78.57;34.63;;;;;;;2.27;41.62;101658.91;3650963;78;98694;-81
2022/03/12 20:47:44;;;;;;;67.73;29.87;;;;;;;2.25;41.61;101661.13;3658983;79;99130;-82
2022/03/12 20:52:45;;;;;;;60.40;27.17;;;;;;;2.17;41.61;101657.69;3668767;76;98881;-82
2022/03/12 20:57:46;;;;;;;67.42;28.25;;;;;;;2.10;41.96;101659.42;3654362;79;99080;-82
2022/03/12 21:02:47;;;;;;;77.57;37.50;;;;;;;2.01;42.22;101651.66;3619348;79;98788;-80
2022/03/12 21:07:54;;;;;;;72.62;34.95;;;;;;;1.93;42.42;101644.16;3627360;79;98949;-81
2022/03/12 21:12:53;;;;;;;52.07;24.20;;;;;;;1.86;42.63;101643.69;3650609;79;98794;-81
2022/03/12 21:17:56;;;;;;;49.13;21.55;;;;;;;1.77;43.29;101645.97;3637333;78;98942;-82
2022/03/12 21:22:57;;;;;;;43.93;21.23;;;;;;;1.67;44.10;101646.08;3656897;78;98845;-82
2022/03/12 21:28:04;;;;;;;50.58;21.82;;;;;;;1.55;44.11;101642.43;3584819;80;98969;-83
2022/03/12 21:33:04;;;;;;;43.23;19.47;;;;;;;1.47;44.91;101652.54;3596932;79;99250;-81
2022/03/12 21:38:08;;;;;;;56.10;24.10;;;;;;;1.40;44.29;101640.41;3588024;80;99018;-82
2022/03/12 21:43:13;;;;;;;73.70;28.10;;;;;;;1.32;44.32;101634.27;3524223;81;98648;-82
2022/03/12 21:48:16;;;;;;;91.53;31.55;;;;;;;1.26;44.68;101634.05;3527130;82;99119;-82
2022/03/12 21:53:21;;;;;;;106.17;34.27;;;;;;;1.17;44.76;101638.47;3522594;82;99173;-82
2022/03/12 21:58:22;;;;;;;85.15;30.72;;;;;;;1.09;44.73;101629.05;3520789;81;99207;-80
2022/03/12 22:03:23;;;;;;;76.60;28.70;;;;;;;1.06;45.16;101630.16;3518642;82;98809;-82
2022/03/12 22:08:25;;;;;;;74.87;28.73;;;;;;;0.99;44.96;101627.77;3515513;81;99065;-81
2022/03/12 22:13:27;;;;;;;85.23;29.63;;;;;;;0.95;45.40;101625.39;3537303;81;98836;-81
2022/03/12 22:18:28;;;;;;;74.60;29.30;;;;;;;0.90;45.21;101632.73;3597525;78;99047;-81
2022/03/12 22:23:30;;;;;;;69.03;27.77;;;;;;;0.86;45.54;101637.10;3645239;78;98796;-81
2022/03/12 22:28:32;;;;;;;60.73;27.30;;;;;;;0.79;45.82;101639.34;3639121;79;99211;-81
2022/03/12 22:33:34;;;;;;;78.80;26.80;;;;;;;0.72;45.88;101634.23;3646111;78;99023;-81
2022/03/12 22:38:36;;;;;;;68.83;25.57;;;;;;;0.65;46.29;101630.22;3636278;79;99033;-82
2022/03/12 22:43:38;;;;;;;76.30;26.27;;;;;;;0.58;46.40;101622.42;3651768;78;98492;-81
2022/03/12 22:48:44;;;;;;;84.23;28.97;;;;;;;0.51;46.66;101625.98;3647322;79;99088;-81
2022/03/12 22:53:43;;;;;;;67.83;30.07;;;;;;;0.45;46.75;101621.69;3629628;78;98912;-81
2022/03/12 22:58:44;;;;;;;66.20;27.93;;;;;;;0.38;47.08;101619.84;3637098;77;99361;-81
2022/03/12 23:09:06;;;;;;;59.30;26.65;;;;;;;0.27;47.46;101614.77;3610838;79;99021;-81